createdAt,value
2022-08-19T00:00:00.294Z,101409.25
2022-08-19T00:00:32.000Z,101415.09
2022-08-19T00:01:04.183Z,101410.78
2022-08-19T00:01:38.266Z,101417.53
2022-08-19T00:02:09.688Z,101415.53
2022-08-19T00:02:50.101Z,101411.22
2022-08-19T00:03:21.878Z,101412.00
2022-08-19T00:03:53.247Z,101411.22
2022-08-19T00:04:31.864Z,101415.16
2022-08-19T00:05:05.038Z,101419.91
2022-08-19T00:05:36.967Z,101413.59
2022-08-19T00:06:08.474Z,101411.66
2022-08-19T00:07:01.233Z,101414.03
2022-08-19T00:07:32.648Z,101411.25
2022-08-19T00:08:04.599Z,101412.44
2022-08-19T00:08:36.356Z,101411.66
2022-08-19T00:09:17.472Z,101419.16
2022-08-19T00:10:37.894Z,101423.13
2022-08-19T00:11:10.123Z,101421.19
2022-08-19T00:11:50.871Z,101417.28
2022-08-19T00:12:22.446Z,101420.44
2022-08-19T00:13:12.415Z,101420.44
2022-08-19T00:13:43.875Z,101422.84
2022-08-19T00:14:17.692Z,101421.72
2022-08-19T00:14:49.076Z,101422.50
2022-08-19T00:15:22.573Z,101420.94
2022-08-19T00:17:02.347Z,101431.97
2022-08-19T00:17:33.744Z,101428.84
2022-08-19T00:18:05.124Z,101427.28
2022-08-19T00:18:36.598Z,101428.47
2022-08-19T00:19:08.613Z,101427.31
2022-08-19T00:19:41.525Z,101429.66
2022-08-19T00:20:18.389Z,101426.91
2022-08-19T00:20:49.910Z,101424.97
2022-08-19T00:21:21.692Z,101427.72
2022-08-19T00:21:53.424Z,101428.91
2022-08-19T00:22:24.804Z,101428.13
2022-08-19T00:23:14.648Z,101423.41
2022-08-19T00:23:46.128Z,101417.50
2022-08-19T00:25:07.215Z,101422.25
2022-08-19T00:25:38.764Z,101423.44
2022-08-19T00:26:11.503Z,101418.34
2022-08-19T00:26:44.652Z,101418.72
2022-08-19T00:27:25.981Z,101417.56
2022-08-19T00:27:59.809Z,101415.19
2022-08-19T00:28:31.598Z,101414.09
2022-08-19T00:29:04.560Z,101421.13
2022-08-19T00:29:36.065Z,101412.50
2022-08-19T00:30:08.504Z,101413.63
2022-08-19T00:30:40.408Z,101414.88
2022-08-19T00:31:11.808Z,101419.94
2022-08-19T00:31:44.664Z,101414.88
2022-08-19T00:32:16.083Z,101415.28
2022-08-19T00:32:50.082Z,101415.28
2022-08-19T00:33:40.147Z,101418.81
2022-08-19T00:34:13.488Z,101423.56
2022-08-19T00:34:44.836Z,101422.75
2022-08-19T00:35:16.247Z,101421.19
2022-08-19T00:35:47.722Z,101416.09
2022-08-19T00:36:29.445Z,101427.13
2022-08-19T00:37:00.781Z,101415.72
2022-08-19T00:37:32.248Z,101416.13
2022-08-19T00:38:03.624Z,101424.41
2022-08-19T00:38:37.527Z,101427.16
2022-08-19T00:39:10.325Z,101417.72
2022-08-19T00:40:00.387Z,101424.44
2022-08-19T00:40:32.022Z,101428.72
2022-08-19T00:41:03.821Z,101434.25
2022-08-19T00:42:24.212Z,101422.44
2022-08-19T00:42:55.549Z,101421.66
2022-08-19T00:43:47.147Z,101416.16
2022-08-19T00:44:26.639Z,101424.81
2022-08-19T00:44:58.616Z,101412.63
2022-08-19T00:45:35.905Z,101419.34
2022-08-19T00:46:08.399Z,101416.94
2022-08-19T00:46:42.807Z,101423.66
2022-08-19T00:47:14.938Z,101415.78
2022-08-19T00:47:48.026Z,101417.78
2022-08-19T00:48:21.257Z,101417.00
2022-08-19T00:48:52.606Z,101419.75
2022-08-19T00:49:31.680Z,101418.97
2022-08-19T00:50:04.240Z,101417.00
2022-08-19T00:50:36.288Z,101416.63
2022-08-19T00:51:26.078Z,101415.84
2022-08-19T00:52:37.820Z,101417.81
2022-08-19T00:53:11.593Z,101421.00
2022-08-19T00:53:44.612Z,101419.06
2022-08-19T00:54:16.686Z,101417.88
2022-08-19T00:54:52.542Z,101419.84
2022-08-19T00:55:44.169Z,101423.38
2022-08-19T00:56:16.328Z,101417.88
2022-08-19T00:56:49.457Z,101423.38
2022-08-19T00:57:30.911Z,101419.06
2022-08-19T00:58:07.940Z,101413.19
2022-08-19T00:58:40.815Z,101415.94
2022-08-19T00:59:12.615Z,101415.16
2022-08-19T00:59:56.350Z,101413.56
2022-08-19T01:00:36.227Z,101411.22
2022-08-19T01:01:08.822Z,101414.75
2022-08-19T01:01:43.359Z,101417.50
2022-08-19T01:02:16.715Z,101412.78
2022-08-19T01:02:48.698Z,101408.06
2022-08-19T01:03:22.086Z,101404.91
2022-08-19T01:04:11.840Z,101414.75
2022-08-19T01:04:43.302Z,101415.94
2022-08-19T01:05:22.694Z,101415.16
2022-08-19T01:06:14.399Z,101415.56
2022-08-19T01:06:51.329Z,101418.31
2022-08-19T01:07:23.160Z,101418.72
2022-08-19T01:07:57.776Z,101418.72
2022-08-19T01:08:29.325Z,101420.72
2022-08-19T01:09:00.834Z,101409.69
2022-08-19T01:09:32.450Z,101411.28
2022-08-19T01:10:05.844Z,101414.81
2022-08-19T01:10:42.779Z,101423.47
2022-08-19T01:11:14.202Z,101418.34
2022-08-19T01:11:45.950Z,101414.06
2022-08-19T01:12:17.941Z,101416.41
2022-08-19T01:12:52.052Z,101420.75
2022-08-19T01:13:29.768Z,101417.59
2022-08-19T01:14:20.619Z,101413.31
2022-08-19T01:14:53.228Z,101414.44
2022-08-19T01:15:29.886Z,101415.22
2022-08-19T01:16:11.203Z,101414.44
2022-08-19T01:17:01.552Z,101419.97
2022-08-19T01:17:33.769Z,101418.38
2022-08-19T01:18:09.200Z,101416.06
2022-08-19T01:18:43.864Z,101418.03
2022-08-19T01:19:29.851Z,101414.91
2022-08-19T01:20:01.655Z,101410.97
2022-08-19T01:21:33.268Z,101412.19
2022-08-19T01:22:16.618Z,101416.50
2022-08-19T01:23:10.539Z,101410.63
2022-08-19T01:23:44.685Z,101406.28
2022-08-19T01:24:16.605Z,101408.28
2022-08-19T01:24:50.013Z,101413.78
2022-08-19T01:25:28.832Z,101405.13
2022-08-19T01:26:00.275Z,101407.50
2022-08-19T01:26:31.792Z,101414.97
2022-08-19T01:27:22.804Z,101413.00
2022-08-19T01:27:56.530Z,101415.75
2022-08-19T01:28:59.668Z,101411.44
2022-08-19T01:29:32.969Z,101413.41
2022-08-19T01:30:06.641Z,101408.31
2022-08-19T01:30:38.369Z,101417.75
2022-08-19T01:31:27.178Z,101417.75
2022-08-19T01:32:01.272Z,101411.88
2022-08-19T01:32:33.952Z,101418.56
2022-08-19T01:33:24.241Z,101415.78
2022-08-19T01:33:58.095Z,101422.50
2022-08-19T01:34:29.528Z,101416.19
2022-08-19T01:35:03.062Z,101415.81
2022-08-19T01:35:36.592Z,101418.56
2022-08-19T01:36:13.892Z,101420.56
2022-08-19T01:36:48.141Z,101420.94
2022-08-19T01:38:19.356Z,101418.56
2022-08-19T01:39:09.866Z,101420.97
2022-08-19T01:39:41.770Z,101418.19
2022-08-19T01:40:13.485Z,101417.84
2022-08-19T01:40:45.005Z,101426.91
2022-08-19T01:41:18.496Z,101426.13
2022-08-19T01:41:50.641Z,101424.16
2022-08-19T01:42:23.080Z,101415.50
2022-08-19T01:43:03.863Z,101423.78
2022-08-19T01:43:35.505Z,101421.03
2022-08-19T01:44:18.447Z,101420.22
2022-08-19T01:45:09.795Z,101428.50
2022-08-19T01:46:50.286Z,101417.09
2022-08-19T01:47:21.608Z,101415.53
2022-08-19T01:48:12.684Z,101418.28
2022-08-19T01:49:02.432Z,101413.97
2022-08-19T01:49:33.794Z,101416.72
2022-08-19T01:50:08.192Z,101413.19
2022-08-19T01:50:39.972Z,101417.91
2022-08-19T01:52:01.855Z,101416.34
2022-08-19T01:52:35.320Z,101418.31
2022-08-19T01:53:10.870Z,101417.53
2022-08-19T01:53:43.053Z,101412.84
2022-08-19T01:54:23.160Z,101418.72
2022-08-19T01:54:59.178Z,101416.78
2022-08-19T01:55:30.621Z,101410.50
2022-08-19T01:56:03.237Z,101414.03
2022-08-19T01:56:34.822Z,101417.19
2022-08-19T01:57:29.854Z,101416.00
2022-08-19T01:58:03.456Z,101416.41
2022-08-19T01:58:47.185Z,101419.94
2022-08-19T01:59:21.444Z,101415.63
2022-08-19T01:59:53.052Z,101423.88
2022-08-19T02:00:26.828Z,101427.44
2022-08-19T02:00:58.450Z,101425.88
2022-08-19T02:01:32.792Z,101418.44
2022-08-19T02:02:08.513Z,101425.06
2022-08-19T02:02:40.224Z,101424.28
2022-08-19T02:03:16.847Z,101425.06
2022-08-19T02:04:06.730Z,101425.88
2022-08-19T02:04:39.392Z,101428.63
2022-08-19T02:05:12.208Z,101421.53
2022-08-19T02:05:44.723Z,101431.38
2022-08-19T02:06:17.893Z,101426.25
2022-08-19T02:06:49.252Z,101421.19
2022-08-19T02:08:11.834Z,101429.47
2022-08-19T02:08:46.895Z,101423.94
2022-08-19T02:09:19.186Z,101425.13
2022-08-19T02:09:50.592Z,101418.06
2022-08-19T02:10:41.569Z,101418.47
2022-08-19T02:11:22.824Z,101417.69
2022-08-19T02:11:54.573Z,101425.56
2022-08-19T02:12:25.918Z,101424.78
2022-08-19T02:12:57.285Z,101418.09
2022-08-19T02:13:28.712Z,101426.38
2022-08-19T02:14:02.982Z,101421.69
2022-08-19T02:14:37.880Z,101425.19
2022-08-19T02:15:09.723Z,101417.31
2022-08-19T02:15:41.782Z,101422.06
2022-08-19T02:16:13.141Z,101420.47
2022-08-19T02:17:54.022Z,101427.19
2022-08-19T02:18:28.031Z,101423.66
2022-08-19T02:19:02.688Z,101416.97
2022-08-19T02:19:34.128Z,101420.50
2022-08-19T02:20:07.815Z,101426.03
2022-08-19T02:20:41.182Z,101421.28
2022-08-19T02:21:13.040Z,101427.22
2022-08-19T02:21:44.570Z,101416.59
2022-08-19T02:23:05.291Z,101411.88
2022-08-19T02:23:46.068Z,101416.59
2022-08-19T02:24:35.840Z,101420.56
2022-08-19T02:25:07.461Z,101420.97
2022-08-19T02:25:58.038Z,101411.13
2022-08-19T02:26:29.475Z,101417.84
2022-08-19T02:27:00.858Z,101418.66
2022-08-19T02:27:32.228Z,101417.44
2022-08-19T02:28:03.924Z,101421.41
2022-08-19T02:28:35.368Z,101415.91
2022-08-19T02:29:06.761Z,101424.16
2022-08-19T02:29:38.114Z,101419.81
2022-08-19T02:30:14.041Z,101419.03
2022-08-19T02:30:46.425Z,101426.91
2022-08-19T02:31:21.138Z,101434.38
2022-08-19T02:31:52.530Z,101428.88
2022-08-19T02:32:23.893Z,101427.31
2022-08-19T02:32:55.446Z,101426.53
2022-08-19T02:33:27.581Z,101430.84
2022-08-19T02:33:59.131Z,101427.31
2022-08-19T02:34:30.606Z,101431.25
2022-08-19T02:35:02.604Z,101424.56
2022-08-19T02:35:45.218Z,101426.16
2022-08-19T02:36:20.816Z,101429.31
2022-08-19T02:36:53.051Z,101432.84
2022-08-19T02:37:42.907Z,101434.81
2022-08-19T02:39:16.015Z,101437.16
2022-08-19T02:40:12.584Z,101437.56
2022-08-19T02:41:08.172Z,101438.75
2022-08-19T02:41:39.529Z,101436.41
2022-08-19T02:42:10.941Z,101442.69
2022-08-19T02:42:43.853Z,101440.34
2022-08-19T02:44:29.882Z,101442.72
2022-08-19T02:44:57.111Z,101443.50
2022-08-19T02:45:33.739Z,101443.91
2022-08-19T02:46:27.837Z,101449.41
2022-08-19T02:46:59.324Z,101443.16
2022-08-19T02:47:30.681Z,101443.94
2022-08-19T02:48:03.442Z,101443.53
2022-08-19T02:49:02.847Z,101448.28
2022-08-19T02:49:34.675Z,101441.19
2022-08-19T02:50:07.200Z,101446.69
2022-08-19T02:50:39.809Z,101446.69
2022-08-19T02:51:17.333Z,101444.34
2022-08-19T02:51:48.741Z,101442.41
2022-08-19T02:52:20.140Z,101436.09
2022-08-19T02:52:51.542Z,101440.03
2022-08-19T02:53:25.427Z,101436.50
2022-08-19T02:53:57.494Z,101434.13
2022-08-19T02:54:29.497Z,101441.63
2022-08-19T02:55:19.859Z,101439.66
2022-08-19T02:55:52.002Z,101438.06
2022-08-19T02:56:25.556Z,101436.50
2022-08-19T02:56:56.906Z,101441.22
2022-08-19T02:57:28.778Z,101436.13
2022-08-19T02:58:00.935Z,101434.53
2022-08-19T02:58:32.320Z,101436.13
2022-08-19T02:59:11.920Z,101448.28
2022-08-19T02:59:43.336Z,101439.28
2022-08-19T03:00:15.294Z,101438.88
2022-08-19T03:00:50.293Z,101440.88
2022-08-19T03:01:33.368Z,101442.81
2022-08-19T03:02:04.812Z,101439.66
2022-08-19T03:02:36.221Z,101441.63
2022-08-19T03:03:07.573Z,101443.63
2022-08-19T03:03:39.183Z,101436.56
2022-08-19T03:04:12.908Z,101440.88
2022-08-19T03:04:44.271Z,101443.25
2022-08-19T03:05:15.783Z,101442.88
2022-08-19T03:05:56.137Z,101442.09
2022-08-19T03:06:28.860Z,101451.50
2022-08-19T03:07:10.756Z,101444.44
2022-08-19T03:07:42.717Z,101440.53
2022-08-19T03:08:33.500Z,101448.78
2022-08-19T03:09:05.009Z,101448.78
2022-08-19T03:09:38.363Z,101442.50
2022-08-19T03:10:09.856Z,101444.84
2022-08-19T03:10:45.045Z,101445.63
2022-08-19T03:11:22.717Z,101444.47
2022-08-19T03:11:54.133Z,101439.75
2022-08-19T03:12:44.291Z,101442.09
2022-08-19T03:13:18.734Z,101442.50
2022-08-19T03:13:51.676Z,101435.81
2022-08-19T03:14:24.019Z,101435.41
2022-08-19T03:14:55.444Z,101430.72
2022-08-19T03:15:27.053Z,101440.53
2022-08-19T03:15:58.489Z,101431.91
2022-08-19T03:16:33.263Z,101438.97
2022-08-19T03:17:05.471Z,101433.47
2022-08-19T03:17:37.244Z,101428.34
2022-08-19T03:18:08.768Z,101431.91
2022-08-19T03:18:41.457Z,101432.28
2022-08-19T03:19:14.206Z,101426.00
2022-08-19T03:19:45.659Z,101426.00
2022-08-19T03:20:17.057Z,101430.72
2022-08-19T03:20:50.662Z,101415.41
2022-08-19T03:21:24.879Z,101431.91
2022-08-19T03:21:56.520Z,101420.88
2022-08-19T03:22:27.981Z,101420.09
2022-08-19T03:22:59.367Z,101427.97
2022-08-19T03:23:30.793Z,101422.47
2022-08-19T03:24:06.872Z,101420.50
2022-08-19T03:24:39.324Z,101424.03
2022-08-19T03:25:12.235Z,101421.69
2022-08-19T03:25:47.602Z,101431.09
2022-08-19T03:26:31.100Z,101424.41
2022-08-19T03:27:05.244Z,101420.88
2022-08-19T03:27:36.607Z,101416.19
2022-08-19T03:28:08.480Z,101414.22
2022-08-19T03:28:40.097Z,101429.13
2022-08-19T03:29:13.211Z,101416.97
2022-08-19T03:29:44.941Z,101422.06
2022-08-19T03:30:16.384Z,101417.34
2022-08-19T03:31:53.056Z,101425.59
2022-08-19T03:32:24.499Z,101423.66
2022-08-19T03:33:04.153Z,101421.69
2022-08-19T03:33:37.423Z,101423.66
2022-08-19T03:34:09.331Z,101421.31
2022-08-19T03:34:41.573Z,101418.16
2022-08-19T03:35:13.117Z,101419.72
2022-08-19T03:35:45.991Z,101413.88
2022-08-19T03:36:23.497Z,101422.47
2022-08-19T03:37:01.412Z,101418.16
2022-08-19T03:37:33.289Z,101426.41
2022-08-19T03:38:07.137Z,101422.13
2022-08-19T03:38:41.951Z,101424.88
2022-08-19T03:39:13.831Z,101425.63
2022-08-19T03:39:45.255Z,101419.38
2022-08-19T03:40:16.862Z,101423.72
2022-08-19T03:41:08.353Z,101420.56
2022-08-19T03:41:44.820Z,101420.97
2022-08-19T03:42:48.786Z,101422.94
2022-08-19T03:43:20.851Z,101420.19
2022-08-19T03:43:53.724Z,101426.09
2022-08-19T03:44:25.141Z,101429.63
2022-08-19T03:45:15.148Z,101428.44
2022-08-19T03:45:46.501Z,101430.41
2022-08-19T03:47:10.390Z,101430.81
2022-08-19T03:48:32.063Z,101427.66
2022-08-19T03:49:08.496Z,101428.06
2022-08-19T03:49:39.961Z,101430.81
2022-08-19T03:50:11.742Z,101428.06
2022-08-19T03:50:43.587Z,101432.78
2022-08-19T03:51:30.629Z,101428.06
2022-08-19T03:52:02.974Z,101432.00
2022-08-19T03:52:34.376Z,101420.22
2022-08-19T03:53:56.319Z,101420.59
2022-08-19T03:54:29.381Z,101418.25
2022-08-19T03:55:00.739Z,101419.44
2022-08-19T03:55:32.134Z,101415.13
2022-08-19T03:56:03.856Z,101419.06
2022-08-19T03:56:37.660Z,101421.81
2022-08-19T03:57:10.085Z,101418.28
2022-08-19T03:57:41.435Z,101411.19
2022-08-19T03:58:12.825Z,101412.81
2022-08-19T03:58:44.943Z,101415.91
2022-08-19T03:59:21.831Z,101418.66
2022-08-19T04:00:44.889Z,101421.84
2022-08-19T04:01:20.869Z,101415.56
2022-08-19T04:02:11.894Z,101419.50
2022-08-19T04:02:57.973Z,101411.25
2022-08-19T04:03:31.544Z,101419.88
2022-08-19T04:05:13.822Z,101416.75
2022-08-19T04:05:46.964Z,101424.22
2022-08-19T04:06:24.103Z,101421.84
2022-08-19T04:06:56.597Z,101417.53
2022-08-19T04:07:28.074Z,101415.56
2022-08-19T04:07:59.866Z,101423.81
2022-08-19T04:09:39.978Z,101422.66
2022-08-19T04:10:11.441Z,101422.66
2022-08-19T04:10:42.986Z,101421.09
2022-08-19T04:11:17.054Z,101415.59
2022-08-19T04:11:54.574Z,101421.09
2022-08-19T04:12:44.460Z,101407.72
2022-08-19T04:13:19.414Z,101410.47
2022-08-19T04:14:30.095Z,101406.94
2022-08-19T04:15:01.573Z,101400.28
2022-08-19T04:15:39.761Z,101401.47
2022-08-19T04:16:12.244Z,101400.66
2022-08-19T04:16:47.418Z,101401.47
2022-08-19T04:17:18.769Z,101397.13
2022-08-19T04:17:50.124Z,101393.59
2022-08-19T04:18:21.448Z,101403.41
2022-08-19T04:18:52.820Z,101394.00
2022-08-19T04:19:24.374Z,101400.66
2022-08-19T04:19:55.750Z,101400.66
2022-08-19T04:20:27.190Z,101395.56
2022-08-19T04:20:58.525Z,101405.38
2022-08-19T04:21:30.060Z,101398.72
2022-08-19T04:22:01.866Z,101397.53
2022-08-19T04:22:33.662Z,101403.03
2022-08-19T04:23:05.061Z,101401.84
2022-08-19T04:23:45.479Z,101399.91
2022-08-19T04:24:18.434Z,101405.00
2022-08-19T04:24:49.782Z,101410.50
2022-08-19T04:25:21.197Z,101404.59
2022-08-19T04:25:52.553Z,101403.03
2022-08-19T04:26:29.832Z,101404.59
2022-08-19T04:27:03.733Z,101413.25
2022-08-19T04:27:35.117Z,101409.72
2022-08-19T04:28:07.009Z,101410.88
2022-08-19T04:28:38.383Z,101411.66
2022-08-19T04:29:13.118Z,101411.66
2022-08-19T04:30:02.989Z,101403.03
2022-08-19T04:31:00.638Z,101399.09
2022-08-19T04:31:36.539Z,101408.13
2022-08-19T04:32:57.000Z,101405.78
2022-08-19T04:33:29.504Z,101408.53
2022-08-19T04:34:03.304Z,101406.56
2022-08-19T04:34:34.660Z,101406.16
2022-08-19T04:35:16.805Z,101408.91
2022-08-19T04:35:52.380Z,101405.38
2022-08-19T04:36:29.034Z,101403.81
2022-08-19T04:37:00.517Z,101406.56
2022-08-19T04:38:26.128Z,101409.31
2022-08-19T04:39:00.143Z,101406.94
2022-08-19T04:39:50.414Z,101411.28
2022-08-19T04:40:40.718Z,101400.28
2022-08-19T04:41:31.123Z,101411.28
2022-08-19T04:43:29.755Z,101403.81
2022-08-19T04:44:04.376Z,101409.72
2022-08-19T04:44:36.656Z,101406.97
2022-08-19T04:45:17.656Z,101406.97
2022-08-19T04:45:49.070Z,101401.84
2022-08-19T04:46:51.201Z,101403.41
2022-08-19T04:47:46.823Z,101408.13
2022-08-19T04:48:19.644Z,101403.81
2022-08-19T04:49:00.657Z,101399.09
2022-08-19T04:49:42.749Z,101402.25
2022-08-19T04:50:14.884Z,101402.66
2022-08-19T04:50:46.264Z,101408.16
2022-08-19T04:51:17.883Z,101399.91
2022-08-19T04:51:50.539Z,101405.41
2022-08-19T04:52:21.855Z,101401.09
2022-08-19T04:52:54.149Z,101405.03
2022-08-19T04:53:37.520Z,101405.81
2022-08-19T04:54:09.787Z,101405.03
2022-08-19T04:54:41.153Z,101407.78
2022-08-19T04:55:13.584Z,101407.38
2022-08-19T04:55:44.974Z,101404.63
2022-08-19T04:56:18.139Z,101409.38
2022-08-19T04:56:58.815Z,101404.63
2022-08-19T04:57:49.191Z,101408.16
2022-08-19T04:59:09.517Z,101403.06
2022-08-19T04:59:40.883Z,101404.25
2022-08-19T05:00:12.602Z,101404.25
2022-08-19T05:01:02.479Z,101402.28
2022-08-19T05:01:34.338Z,101405.03
2022-08-19T05:02:07.697Z,101400.31
2022-08-19T05:02:57.989Z,101409.38
2022-08-19T05:03:34.484Z,101401.88
2022-08-19T05:04:07.215Z,101411.31
2022-08-19T05:04:40.178Z,101406.22
2022-08-19T05:05:11.790Z,101406.63
2022-08-19T05:05:45.629Z,101412.13
2022-08-19T05:06:37.083Z,101408.94
2022-08-19T05:07:08.955Z,101407.75
2022-08-19T05:07:41.946Z,101410.50
2022-08-19T05:08:15.196Z,101420.31
2022-08-19T05:08:48.028Z,101415.59
2022-08-19T05:09:20.390Z,101416.38
2022-08-19T05:09:57.779Z,101421.88
2022-08-19T05:10:31.316Z,101416.38
2022-08-19T05:11:18.156Z,101421.50
2022-08-19T05:11:50.632Z,101424.25
2022-08-19T05:12:22.255Z,101425.03
2022-08-19T05:13:00.041Z,101420.31
2022-08-19T05:13:32.287Z,101423.84
2022-08-19T05:14:03.667Z,101424.63
2022-08-19T05:14:35.020Z,101423.44
2022-08-19T05:15:09.467Z,101419.13
2022-08-19T05:15:41.792Z,101427.38
2022-08-19T05:16:14.223Z,101434.44
2022-08-19T05:16:45.588Z,101426.59
2022-08-19T05:17:27.537Z,101427.38
2022-08-19T05:18:29.167Z,101426.19
2022-08-19T05:19:19.594Z,101428.94
2022-08-19T05:20:09.563Z,101424.63
2022-08-19T05:20:59.260Z,101424.63
2022-08-19T05:21:51.064Z,101424.22
2022-08-19T05:22:35.473Z,101423.44
2022-08-19T05:23:09.187Z,101423.44
2022-08-19T05:23:45.292Z,101428.16
2022-08-19T05:24:18.024Z,101428.94
2022-08-19T05:25:11.166Z,101427.78
2022-08-19T05:25:41.701Z,101429.75
2022-08-19T05:26:13.187Z,101427.78
2022-08-19T05:26:47.318Z,101425.81
2022-08-19T05:27:18.771Z,101423.06
2022-08-19T05:27:50.331Z,101419.13
2022-08-19T05:28:21.670Z,101422.66
2022-08-19T05:28:54.724Z,101427.38
2022-08-19T05:29:33.407Z,101426.56
2022-08-19T05:30:46.044Z,101428.16
2022-08-19T05:31:18.103Z,101426.56
2022-08-19T05:31:50.623Z,101429.31
2022-08-19T05:32:24.192Z,101427.38
2022-08-19T05:33:13.918Z,101426.56
2022-08-19T05:33:45.308Z,101428.94
2022-08-19T05:34:20.142Z,101428.16
2022-08-19T05:34:52.151Z,101422.63
2022-08-19T05:35:24.932Z,101426.19
2022-08-19T05:35:56.935Z,101427.75
2022-08-19T05:36:33.655Z,101430.50
2022-08-19T05:37:06.143Z,101425.00
2022-08-19T05:37:39.969Z,101426.56
2022-08-19T05:38:12.037Z,101432.84
2022-08-19T05:39:01.770Z,101433.63
2022-08-19T05:39:35.326Z,101433.22
2022-08-19T05:40:07.215Z,101426.53
2022-08-19T05:40:39.562Z,101432.81
2022-08-19T05:41:12.858Z,101433.59
2022-08-19T05:41:45.815Z,101431.63
2022-08-19T05:42:17.276Z,101425.34
2022-08-19T05:43:39.779Z,101428.06
2022-08-19T05:44:11.266Z,101433.56
2022-08-19T05:44:45.079Z,101431.63
2022-08-19T05:46:55.523Z,101435.91
2022-08-19T05:47:26.845Z,101435.13
2022-08-19T05:47:59.160Z,101431.97
2022-08-19T05:48:31.115Z,101431.97
2022-08-19T05:49:02.479Z,101435.13
2022-08-19T05:49:34.991Z,101433.56
2022-08-19T05:50:06.697Z,101435.50
2022-08-19T05:50:40.658Z,101438.25
2022-08-19T05:51:12.035Z,101435.09
2022-08-19T05:51:44.087Z,101437.84
2022-08-19T05:52:18.647Z,101437.84
2022-08-19T05:52:50.812Z,101438.22
2022-08-19T05:53:22.346Z,101434.69
2022-08-19T05:53:53.685Z,101437.81
2022-08-19T05:54:25.137Z,101429.56
2022-08-19T05:54:57.150Z,101429.16
2022-08-19T05:55:28.528Z,101427.19
2022-08-19T05:56:05.755Z,101431.50
2022-08-19T05:56:39.984Z,101433.06
2022-08-19T05:57:12.080Z,101431.91
2022-08-19T05:57:44.750Z,101427.97
2022-08-19T05:58:16.123Z,101433.06
2022-08-19T05:58:47.498Z,101431.88
2022-08-19T05:59:22.357Z,101433.44
2022-08-19T05:59:58.830Z,101425.19
2022-08-19T06:00:32.062Z,101428.31
2022-08-19T06:01:06.588Z,101429.09
2022-08-19T06:02:31.658Z,101428.72
2022-08-19T06:03:11.777Z,101423.97
2022-08-19T06:03:45.179Z,101425.56
2022-08-19T06:04:16.555Z,101427.88
2022-08-19T06:04:47.884Z,101423.94
2022-08-19T06:05:19.254Z,101426.28
2022-08-19T06:05:52.226Z,101429.81
2022-08-19T06:06:23.766Z,101434.94
2022-08-19T06:07:44.154Z,101432.56
2022-08-19T06:08:15.518Z,101441.22
2022-08-19T06:08:51.588Z,101443.97
2022-08-19T06:09:23.793Z,101435.31
2022-08-19T06:10:00.552Z,101445.53
2022-08-19T06:10:32.485Z,101440.81
2022-08-19T06:11:20.141Z,101436.06
2022-08-19T06:12:00.346Z,101447.44
2022-08-19T06:12:51.191Z,101440.75
2022-08-19T06:13:41.430Z,101440.34
2022-08-19T06:14:16.451Z,101435.63
2022-08-19T06:14:48.196Z,101439.16
2022-08-19T06:15:32.723Z,101434.03
2022-08-19T06:16:04.063Z,101434.81
2022-08-19T06:16:40.839Z,101438.34
2022-08-19T06:17:13.051Z,101443.84
2022-08-19T06:18:02.942Z,101440.69
2022-08-19T06:18:34.367Z,101440.28
2022-08-19T06:19:09.345Z,101435.56
2022-08-19T06:19:41.878Z,101439.91
2022-08-19T06:20:15.776Z,101440.28
2022-08-19T06:20:56.191Z,101440.66
2022-08-19T06:21:29.635Z,101438.69
2022-08-19T06:22:19.808Z,101439.06
2022-08-19T06:22:52.343Z,101439.84
2022-08-19T06:23:24.260Z,101438.63
2022-08-19T06:23:57.592Z,101436.66
2022-08-19T06:24:30.341Z,101436.25
2022-08-19T06:25:01.807Z,101433.88
2022-08-19T06:25:33.367Z,101429.16
2022-08-19T06:26:05.087Z,101434.25
2022-08-19T06:26:39.030Z,101429.53
2022-08-19T06:27:10.450Z,101433.03
2022-08-19T06:28:13.658Z,101433.84
2022-08-19T06:28:34.427Z,101429.88
2022-08-19T06:29:25.610Z,101432.25
2022-08-19T06:29:56.961Z,101438.53
2022-08-19T06:30:28.459Z,101434.59
2022-08-19T06:30:59.774Z,101431.44
2022-08-19T06:31:50.521Z,101442.03
2022-08-19T06:32:42.921Z,101439.28
2022-08-19T06:33:33.066Z,101438.84
2022-08-19T06:34:55.738Z,101432.94
2022-08-19T06:35:27.186Z,101434.50
2022-08-19T06:35:58.522Z,101438.03
2022-08-19T06:36:34.809Z,101438.81
2022-08-19T06:37:06.671Z,101438.44
2022-08-19T06:37:40.831Z,101442.75
2022-08-19T06:38:36.563Z,101439.19
2022-08-19T06:39:11.836Z,101444.66
2022-08-19T06:39:44.871Z,101437.97
2022-08-19T06:40:16.588Z,101439.53
2022-08-19T06:40:47.974Z,101437.94
2022-08-19T06:41:41.076Z,101443.00
2022-08-19T06:42:17.870Z,101439.03
2022-08-19T06:42:54.404Z,101439.81
2022-08-19T06:43:28.117Z,101440.97
2022-08-19T06:44:00.508Z,101442.13
2022-08-19T06:44:35.311Z,101439.75
2022-08-19T06:45:12.039Z,101444.47
2022-08-19T06:45:43.370Z,101444.84
2022-08-19T06:46:16.695Z,101446.75
2022-08-19T06:46:53.609Z,101437.66
2022-08-19T06:47:28.901Z,101439.59
2022-08-19T06:48:00.606Z,101437.22
2022-08-19T06:48:35.552Z,101440.34
2022-08-19T06:49:14.344Z,101449.03
2022-08-19T06:49:45.723Z,101437.59
2022-08-19T06:50:17.069Z,101442.69
2022-08-19T06:50:52.372Z,101441.84
2022-08-19T06:51:24.978Z,101437.91
2022-08-19T06:51:57.649Z,101442.59
2022-08-19T06:53:23.837Z,101445.28
2022-08-19T06:53:56.151Z,101444.88
2022-08-19T06:54:30.738Z,101441.28
2022-08-19T06:55:06.100Z,101444.44
2022-08-19T06:55:38.426Z,101444.78
2022-08-19T06:56:28.504Z,101447.13
2022-08-19T06:57:03.122Z,101445.94
2022-08-19T06:57:35.100Z,101444.72
2022-08-19T06:58:06.533Z,101438.81
2022-08-19T06:58:39.270Z,101441.56
2022-08-19T06:59:14.102Z,101443.91
2022-08-19T06:59:45.412Z,101440.75
2022-08-19T07:00:16.964Z,101437.56
2022-08-19T07:00:48.407Z,101439.13
2022-08-19T07:01:21.056Z,101439.56
2022-08-19T07:01:54.666Z,101438.34
2022-08-19T07:02:27.295Z,101440.34
2022-08-19T07:03:03.010Z,101443.88
2022-08-19T07:03:39.755Z,101443.88
2022-08-19T07:04:12.161Z,101447.41
2022-08-19T07:04:43.645Z,101442.28
2022-08-19T07:05:14.995Z,101447.78
2022-08-19T07:05:47.695Z,101449.75
2022-08-19T07:06:41.202Z,101447.38
2022-08-19T07:07:19.901Z,101449.34
2022-08-19T07:07:52.565Z,101446.97
2022-08-19T07:08:25.339Z,101449.72
2022-08-19T07:09:00.746Z,101448.16
2022-08-19T07:09:32.094Z,101452.13
2022-08-19T07:10:07.726Z,101457.63
2022-08-19T07:11:01.536Z,101455.66
2022-08-19T07:13:45.923Z,101450.84
2022-08-19T07:14:20.249Z,101453.63
2022-08-19T07:14:51.689Z,101452.00
2022-08-19T07:15:24.101Z,101446.47
2022-08-19T07:15:55.437Z,101449.63
2022-08-19T07:16:29.336Z,101446.44
2022-08-19T07:17:01.018Z,101448.00